オラニエスタッド の空港の天気 - METARとTAF

クィーン・ベアトリクス国際空港 ( TNCA / AUA ) - アルバ オラニエスタッド
飛行場実況気象(Metar)
観測時間08/13 18:00 AST (08/13 22:00 UTC)
風向・風速東北東 8m/s
視程10km以上
天気現象
少しの雲 雲底高度 550m
気温29℃
湿度74%
気圧1012hPa
METARTNCA 132200Z 07016KT 9999 FEW018 29/24 Q1012 NOSIG
過去の天気等 Google飛行場航空写真 Wunderground天気予報

過去48時間のMETAR

飛行場予報(TAF)
発表時間: 8/13 13:15 AST (8/13 17:15 UTC)
予報対象時間: 13日14時 AST ~ 14日14時 AST
風向・風速東 9m/s
視程10km以上
全天の4割程度の雲 雲底高度 670m
14日2時 AST ~ 14日8時 AST に一時的に
視程5000m
天気現象しゅう雨
全天の8割程度の雲 雲底高度 430m
TAF TNCA 131715Z 1318/1418 08018KT 9999 SCT022
TEMPO 1406/1412 5000 SHRA BKN014